sensor_id;sensor_type;location;lat;lon;timestamp;temperature;humidity
16140;DHT22;8175;49.326;12.690;2023-09-30T08:14:56;17.00;99.90
16140;DHT22;8175;49.326;12.690;2023-09-30T08:17:23;17.00;99.90
16140;DHT22;8175;49.326;12.690;2023-09-30T08:19:48;17.10;99.90
16140;DHT22;8175;49.326;12.690;2023-09-30T08:22:14;17.20;99.90
16140;DHT22;8175;49.326;12.690;2023-09-30T08:24:40;17.30;99.90
16140;DHT22;8175;49.326;12.690;2023-09-30T08:27:06;17.30;99.90
16140;DHT22;8175;49.326;12.690;2023-09-30T08:29:35;17.20;99.90
16140;DHT22;8175;49.326;12.690;2023-09-30T08:32:02;17.40;99.90
16140;DHT22;8175;49.326;12.690;2023-09-30T08:34:28;17.20;99.90
16140;DHT22;8175;49.326;12.690;2023-09-30T08:36:54;17.20;99.90
16140;DHT22;8175;49.326;12.690;2023-09-30T08:39:20;17.10;99.90
16140;DHT22;8175;49.326;12.690;2023-09-30T08:41:46;17.00;99.90
16140;DHT22;8175;49.326;12.690;2023-09-30T08:44:11;16.80;99.90
16140;DHT22;8175;49.326;12.690;2023-09-30T08:46:39;16.60;99.90
16140;DHT22;8175;49.326;12.690;2023-09-30T08:49:05;16.40;99.90
16140;DHT22;8175;49.326;12.690;2023-09-30T08:51:32;16.40;99.90
16140;DHT22;8175;49.326;12.690;2023-09-30T08:53:59;16.30;99.90
16140;DHT22;8175;49.326;12.690;2023-09-30T08:56:28;16.10;99.90
16140;DHT22;8175;49.326;12.690;2023-09-30T08:58:58;16.00;99.90
16140;DHT22;8175;49.326;12.690;2023-09-30T09:01:28;16.00;99.90
16140;DHT22;8175;49.326;12.690;2023-09-30T09:03:55;16.10;99.90
16140;DHT22;8175;49.326;12.690;2023-09-30T09:06:21;16.10;99.90
16140;DHT22;8175;49.326;12.690;2023-09-30T09:08:47;15.90;99.90
16140;DHT22;8175;49.326;12.690;2023-09-30T09:11:13;15.80;99.90
16140;DHT22;8175;49.326;12.690;2023-09-30T09:13:53;15.80;99.90
16140;DHT22;8175;49.326;12.690;2023-09-30T09:16:22;15.60;99.90
16140;DHT22;8175;49.326;12.690;2023-09-30T09:18:49;15.50;99.90
16140;DHT22;8175;49.326;12.690;2023-09-30T09:21:17;15.40;99.90
16140;DHT22;8175;49.326;12.690;2023-09-30T09:23:47;15.30;99.90
16140;DHT22;8175;49.326;12.690;2023-09-30T09:26:30;15.30;99.90
16140;DHT22;8175;49.326;12.690;2023-09-30T09:29:02;15.30;99.90
16140;DHT22;8175;49.326;12.690;2023-09-30T09:31:33;15.20;99.90
16140;DHT22;8175;49.326;12.690;2023-09-30T09:34:03;15.20;99.90
16140;DHT22;8175;49.326;12.690;2023-09-30T09:36:43;15.20;99.90
16140;DHT22;8175;49.326;12.690;2023-09-30T09:39:09;15.20;99.90
16140;DHT22;8175;49.326;12.690;2023-09-30T09:41:51;15.20;99.90
16140;DHT22;8175;49.326;12.690;2023-09-30T09:44:19;15.30;99.90
16140;DHT22;8175;49.326;12.690;2023-09-30T09:46:48;15.30;99.90
16140;DHT22;8175;49.326;12.690;2023-09-30T09:49:17;15.30;99.90
16140;DHT22;8175;49.326;12.690;2023-09-30T09:51:44;15.20;99.90
16140;DHT22;8175;49.326;12.690;2023-09-30T09:54:11;15.30;99.90
16140;DHT22;8175;49.326;12.690;2023-09-30T09:56:39;15.30;99.90
16140;DHT22;8175;49.326;12.690;2023-09-30T09:59:05;15.40;99.90
16140;DHT22;8175;49.326;12.690;2023-09-30T10:01:33;15.50;99.90
16140;DHT22;8175;49.326;12.690;2023-09-30T10:04:00;15.40;99.90
16140;DHT22;8175;49.326;12.690;2023-09-30T10:06:27;15.20;99.90
16140;DHT22;8175;49.326;12.690;2023-09-30T10:08:54;15.20;99.90
16140;DHT22;8175;49.326;12.690;2023-09-30T10:11:23;15.20;99.90
16140;DHT22;8175;49.326;12.690;2023-09-30T10:13:56;15.20;99.90
16140;DHT22;8175;49.326;12.690;2023-09-30T10:19:11;15.10;99.90
16140;DHT22;8175;49.326;12.690;2023-09-30T10:21:37;15.10;99.90
16140;DHT22;8175;49.326;12.690;2023-09-30T10:29:48;15.20;99.90
16140;DHT22;8175;49.326;12.690;2023-09-30T10:32:15;15.30;99.90
16140;DHT22;8175;49.326;12.690;2023-09-30T10:34:48;15.20;99.90
16140;DHT22;8175;49.326;12.690;2023-09-30T10:37:24;15.20;99.90
16140;DHT22;8175;49.326;12.690;2023-09-30T10:39:53;15.10;99.90
16140;DHT22;8175;49.326;12.690;2023-09-30T10:50:55;15.10;99.90
16140;DHT22;8175;49.326;12.690;2023-09-30T10:53:22;15.00;99.90
16140;DHT22;8175;49.326;12.690;2023-09-30T10:55:56;15.10;99.90
16140;DHT22;8175;49.326;12.690;2023-09-30T10:58:42;15.10;99.90
16140;DHT22;8175;49.326;12.690;2023-09-30T11:01:08;15.10;99.90
16140;DHT22;8175;49.326;12.690;2023-09-30T11:03:33;15.20;99.90
16140;DHT22;8175;49.326;12.690;2023-09-30T11:05:59;15.20;99.90
16140;DHT22;8175;49.326;12.690;2023-09-30T11:08:28;15.20;99.90
16140;DHT22;8175;49.326;12.690;2023-09-30T11:10:54;15.30;99.90
16140;DHT22;8175;49.326;12.690;2023-09-30T11:13:20;15.40;99.90
16140;DHT22;8175;49.326;12.690;2023-09-30T11:15:46;15.40;99.90
16140;DHT22;8175;49.326;12.690;2023-09-30T11:18:17;15.50;99.90
16140;DHT22;8175;49.326;12.690;2023-09-30T11:20:44;15.60;99.90
16140;DHT22;8175;49.326;12.690;2023-09-30T11:23:13;15.50;99.90
16140;DHT22;8175;49.326;12.690;2023-09-30T11:25:40;15.50;99.90
16140;DHT22;8175;49.326;12.690;2023-09-30T11:28:16;15.30;99.90
16140;DHT22;8175;49.326;12.690;2023-09-30T11:30:55;15.10;99.90
16140;DHT22;8175;49.326;12.690;2023-09-30T11:33:21;15.00;99.90
16140;DHT22;8175;49.326;12.690;2023-09-30T11:36:04;14.80;99.90
16140;DHT22;8175;49.326;12.690;2023-09-30T11:38:32;14.70;99.90
16140;DHT22;8175;49.326;12.690;2023-09-30T11:41:02;14.40;99.90
16140;DHT22;8175;49.326;12.690;2023-09-30T11:43:30;14.30;99.90
16140;DHT22;8175;49.326;12.690;2023-09-30T11:46:11;14.30;99.90
16140;DHT22;8175;49.326;12.690;2023-09-30T11:49:02;14.30;99.90
16140;DHT22;8175;49.326;12.690;2023-09-30T11:51:27;14.30;99.90
16140;DHT22;8175;49.326;12.690;2023-09-30T11:53:54;14.20;99.90
16140;DHT22;8175;49.326;12.690;2023-09-30T11:56:20;14.20;99.90
16140;DHT22;8175;49.326;12.690;2023-09-30T11:58:47;14.40;99.90
16140;DHT22;8175;49.326;12.690;2023-09-30T12:01:14;14.50;99.90
16140;DHT22;8175;49.326;12.690;2023-09-30T12:03:40;14.50;99.90
16140;DHT22;8175;49.326;12.690;2023-09-30T12:06:08;14.50;99.90
16140;DHT22;8175;49.326;12.690;2023-09-30T12:08:39;14.50;99.90
16140;DHT22;8175;49.326;12.690;2023-09-30T12:11:05;14.40;99.90
16140;DHT22;8175;49.326;12.690;2023-09-30T12:13:31;14.30;99.90
16140;DHT22;8175;49.326;12.690;2023-09-30T12:15:57;14.30;99.90
16140;DHT22;8175;49.326;12.690;2023-09-30T12:18:23;14.20;99.90
16140;DHT22;8175;49.326;12.690;2023-09-30T12:20:50;14.00;99.90
16140;DHT22;8175;49.326;12.690;2023-09-30T12:23:17;14.00;99.90
16140;DHT22;8175;49.326;12.690;2023-09-30T12:25:43;14.00;99.90
16140;DHT22;8175;49.326;12.690;2023-09-30T12:28:09;14.00;99.90
16140;DHT22;8175;49.326;12.690;2023-09-30T12:30:35;14.10;99.90
16140;DHT22;8175;49.326;12.690;2023-09-30T12:33:01;14.10;99.90
16140;DHT22;8175;49.326;12.690;2023-09-30T12:35:27;14.10;99.90
16140;DHT22;8175;49.326;12.690;2023-09-30T12:37:52;14.10;99.90
16140;DHT22;8175;49.326;12.690;2023-09-30T12:40:18;14.20;99.90
16140;DHT22;8175;49.326;12.690;2023-09-30T12:42:44;14.30;99.90
16140;DHT22;8175;49.326;12.690;2023-09-30T12:45:11;14.30;99.90
16140;DHT22;8175;49.326;12.690;2023-09-30T12:47:36;14.40;99.90
16140;DHT22;8175;49.326;12.690;2023-09-30T12:50:02;14.50;99.90
16140;DHT22;8175;49.326;12.690;2023-09-30T12:52:28;14.60;99.90
16140;DHT22;8175;49.326;12.690;2023-09-30T12:54:55;14.70;99.90
16140;DHT22;8175;49.326;12.690;2023-09-30T12:57:21;14.70;99.90
16140;DHT22;8175;49.326;12.690;2023-09-30T12:59:47;14.90;99.90
16140;DHT22;8175;49.326;12.690;2023-09-30T13:02:15;15.00;99.90
16140;DHT22;8175;49.326;12.690;2023-09-30T13:04:41;15.00;99.90
16140;DHT22;8175;49.326;12.690;2023-09-30T13:07:10;14.90;99.90
16140;DHT22;8175;49.326;12.690;2023-09-30T13:09:36;14.90;99.90
16140;DHT22;8175;49.326;12.690;2023-09-30T13:12:05;15.00;99.90
16140;DHT22;8175;49.326;12.690;2023-09-30T13:14:31;14.70;99.90
16140;DHT22;8175;49.326;12.690;2023-09-30T13:16:57;14.60;99.90
16140;DHT22;8175;49.326;12.690;2023-09-30T13:19:23;14.60;99.90
16140;DHT22;8175;49.326;12.690;2023-09-30T13:21:52;14.50;99.90
16140;DHT22;8175;49.326;12.690;2023-09-30T13:24:21;14.60;99.90
16140;DHT22;8175;49.326;12.690;2023-09-30T13:26:48;14.70;99.90
16140;DHT22;8175;49.326;12.690;2023-09-30T13:29:15;14.70;99.90
16140;DHT22;8175;49.326;12.690;2023-09-30T13:31:42;14.80;99.90
16140;DHT22;8175;49.326;12.690;2023-09-30T13:34:08;15.10;99.90
16140;DHT22;8175;49.326;12.690;2023-09-30T13:36:34;15.40;99.90
16140;DHT22;8175;49.326;12.690;2023-09-30T13:38:59;15.30;99.90
16140;DHT22;8175;49.326;12.690;2023-09-30T13:41:26;15.30;99.90
16140;DHT22;8175;49.326;12.690;2023-09-30T13:43:52;15.20;99.90
16140;DHT22;8175;49.326;12.690;2023-09-30T13:46:18;15.30;99.90
16140;DHT22;8175;49.326;12.690;2023-09-30T13:48:43;15.20;99.90
16140;DHT22;8175;49.326;12.690;2023-09-30T13:51:10;15.20;99.90
16140;DHT22;8175;49.326;12.690;2023-09-30T13:53:36;15.10;99.90
16140;DHT22;8175;49.326;12.690;2023-09-30T13:56:02;15.10;99.90
16140;DHT22;8175;49.326;12.690;2023-09-30T13:58:29;15.10;99.90
16140;DHT22;8175;49.326;12.690;2023-09-30T14:00:55;15.20;99.90
16140;DHT22;8175;49.326;12.690;2023-09-30T14:03:22;15.30;99.90
16140;DHT22;8175;49.326;12.690;2023-09-30T14:05:50;15.40;99.90
16140;DHT22;8175;49.326;12.690;2023-09-30T14:08:16;15.40;99.90
16140;DHT22;8175;49.326;12.690;2023-09-30T14:10:42;15.40;99.90
16140;DHT22;8175;49.326;12.690;2023-09-30T14:13:10;15.60;99.90
16140;DHT22;8175;49.326;12.690;2023-09-30T14:15:35;15.60;99.90
16140;DHT22;8175;49.326;12.690;2023-09-30T14:18:02;16.00;99.90
16140;DHT22;8175;49.326;12.690;2023-09-30T14:20:28;16.50;99.90
16140;DHT22;8175;49.326;12.690;2023-09-30T14:22:53;16.80;99.90
16140;DHT22;8175;49.326;12.690;2023-09-30T14:25:21;16.80;99.90
16140;DHT22;8175;49.326;12.690;2023-09-30T14:27:47;17.00;99.90
16140;DHT22;8175;49.326;12.690;2023-09-30T14:30:13;17.30;99.90
16140;DHT22;8175;49.326;12.690;2023-09-30T14:32:40;17.60;99.90
16140;DHT22;8175;49.326;12.690;2023-09-30T14:35:06;17.80;99.90
16140;DHT22;8175;49.326;12.690;2023-09-30T14:37:32;17.90;99.90
16140;DHT22;8175;49.326;12.690;2023-09-30T14:39:58;18.20;99.90
16140;DHT22;8175;49.326;12.690;2023-09-30T14:42:23;18.30;99.90
16140;DHT22;8175;49.326;12.690;2023-09-30T14:44:49;18.70;99.90
16140;DHT22;8175;49.326;12.690;2023-09-30T14:47:15;19.40;99.90
16140;DHT22;8175;49.326;12.690;2023-09-30T14:49:41;19.30;99.90
16140;DHT22;8175;49.326;12.690;2023-09-30T14:52:07;19.00;99.90
16140;DHT22;8175;49.326;12.690;2023-09-30T14:54:32;19.30;99.90
16140;DHT22;8175;49.326;12.690;2023-09-30T14:56:58;19.80;99.90
16140;DHT22;8175;49.326;12.690;2023-09-30T14:59:24;20.30;99.90
16140;DHT22;8175;49.326;12.690;2023-09-30T15:01:50;20.40;99.90
16140;DHT22;8175;49.326;12.690;2023-09-30T15:04:18;20.20;99.90
16140;DHT22;8175;49.326;12.690;2023-09-30T15:06:44;19.80;99.90
16140;DHT22;8175;49.326;12.690;2023-09-30T15:09:11;19.50;99.90
16140;DHT22;8175;49.326;12.690;2023-09-30T15:11:37;18.80;99.90
16140;DHT22;8175;49.326;12.690;2023-09-30T15:14:03;18.30;99.90
16140;DHT22;8175;49.326;12.690;2023-09-30T15:16:32;17.90;99.90
16140;DHT22;8175;49.326;12.690;2023-09-30T15:18:58;17.40;99.90
16140;DHT22;8175;49.326;12.690;2023-09-30T15:21:24;17.30;99.90
16140;DHT22;8175;49.326;12.690;2023-09-30T15:23:50;17.30;99.90
16140;DHT22;8175;49.326;12.690;2023-09-30T15:26:16;17.20;99.90
16140;DHT22;8175;49.326;12.690;2023-09-30T15:28:42;17.10;99.90
16140;DHT22;8175;49.326;12.690;2023-09-30T15:31:08;17.20;99.90
16140;DHT22;8175;49.326;12.690;2023-09-30T15:33:34;16.90;99.90
16140;DHT22;8175;49.326;12.690;2023-09-30T15:36:08;16.70;99.90
16140;DHT22;8175;49.326;12.690;2023-09-30T15:38:33;16.60;99.90
16140;DHT22;8175;49.326;12.690;2023-09-30T15:40:59;16.50;99.90
16140;DHT22;8175;49.326;12.690;2023-09-30T15:43:29;16.40;99.90
16140;DHT22;8175;49.326;12.690;2023-09-30T15:45:55;16.40;99.90
16140;DHT22;8175;49.326;12.690;2023-09-30T15:48:21;16.50;99.90
16140;DHT22;8175;49.326;12.690;2023-09-30T15:50:47;16.40;99.90
16140;DHT22;8175;49.326;12.690;2023-09-30T15:53:14;16.40;99.90
16140;DHT22;8175;49.326;12.690;2023-09-30T15:55:39;16.30;99.90
16140;DHT22;8175;49.326;12.690;2023-09-30T15:58:05;16.10;99.90
16140;DHT22;8175;49.326;12.690;2023-09-30T16:00:35;16.00;99.90
16140;DHT22;8175;49.326;12.690;2023-09-30T16:03:02;15.80;99.90
16140;DHT22;8175;49.326;12.690;2023-09-30T16:05:28;15.60;99.90
16140;DHT22;8175;49.326;12.690;2023-09-30T16:07:54;15.40;99.90
16140;DHT22;8175;49.326;12.690;2023-09-30T16:10:19;15.30;99.90
16140;DHT22;8175;49.326;12.690;2023-09-30T16:12:45;15.20;99.90
16140;DHT22;8175;49.326;12.690;2023-09-30T16:15:11;15.00;99.90
16140;DHT22;8175;49.326;12.690;2023-09-30T16:17:38;14.90;99.90
16140;DHT22;8175;49.326;12.690;2023-09-30T16:20:04;14.70;99.90
16140;DHT22;8175;49.326;12.690;2023-09-30T16:22:30;14.50;99.90
16140;DHT22;8175;49.326;12.690;2023-09-30T16:24:57;14.20;99.90
16140;DHT22;8175;49.326;12.690;2023-09-30T16:27:23;14.00;99.90
16140;DHT22;8175;49.326;12.690;2023-09-30T16:29:48;13.80;99.90
16140;DHT22;8175;49.326;12.690;2023-09-30T16:32:14;13.60;99.90
16140;DHT22;8175;49.326;12.690;2023-09-30T16:34:40;13.30;99.90
16140;DHT22;8175;49.326;12.690;2023-09-30T16:37:05;13.10;99.90
16140;DHT22;8175;49.326;12.690;2023-09-30T16:39:31;12.90;99.90
16140;DHT22;8175;49.326;12.690;2023-09-30T16:41:57;12.70;99.90
16140;DHT22;8175;49.326;12.690;2023-09-30T16:44:22;12.40;99.90
16140;DHT22;8175;49.326;12.690;2023-09-30T16:46:48;12.20;99.90
16140;DHT22;8175;49.326;12.690;2023-09-30T16:49:15;12.10;99.90
16140;DHT22;8175;49.326;12.690;2023-09-30T16:51:41;11.90;99.90
16140;DHT22;8175;49.326;12.690;2023-09-30T16:54:07;11.80;99.90
16140;DHT22;8175;49.326;12.690;2023-09-30T16:56:34;11.60;99.90
16140;DHT22;8175;49.326;12.690;2023-09-30T16:58:59;11.60;99.90
16140;DHT22;8175;49.326;12.690;2023-09-30T17:01:27;11.50;99.90
16140;DHT22;8175;49.326;12.690;2023-09-30T17:03:54;11.40;99.90
16140;DHT22;8175;49.326;12.690;2023-09-30T17:06:20;11.30;99.90
16140;DHT22;8175;49.326;12.690;2023-09-30T17:08:46;11.20;99.90
16140;DHT22;8175;49.326;12.690;2023-09-30T17:11:17;11.10;99.90
16140;DHT22;8175;49.326;12.690;2023-09-30T17:13:43;11.10;99.90
16140;DHT22;8175;49.326;12.690;2023-09-30T17:16:09;11.10;99.90
16140;DHT22;8175;49.326;12.690;2023-09-30T17:18:34;11.00;99.90
16140;DHT22;8175;49.326;12.690;2023-09-30T17:21:00;11.00;99.90
16140;DHT22;8175;49.326;12.690;2023-09-30T17:23:25;10.90;99.90
16140;DHT22;8175;49.326;12.690;2023-09-30T17:25:51;10.80;99.90
16140;DHT22;8175;49.326;12.690;2023-09-30T17:28:17;10.80;99.90
16140;DHT22;8175;49.326;12.690;2023-09-30T17:30:42;10.80;99.90
16140;DHT22;8175;49.326;12.690;2023-09-30T17:33:08;10.60;99.90
16140;DHT22;8175;49.326;12.690;2023-09-30T17:35:38;10.60;99.90
16140;DHT22;8175;49.326;12.690;2023-09-30T17:38:05;10.60;99.90
16140;DHT22;8175;49.326;12.690;2023-09-30T17:40:31;10.60;99.90
16140;DHT22;8175;49.326;12.690;2023-09-30T17:42:56;10.60;99.90
16140;DHT22;8175;49.326;12.690;2023-09-30T17:45:22;10.50;99.90
16140;DHT22;8175;49.326;12.690;2023-09-30T17:47:49;10.50;99.90
16140;DHT22;8175;49.326;12.690;2023-09-30T17:50:14;10.50;99.90
16140;DHT22;8175;49.326;12.690;2023-09-30T17:52:40;10.50;99.90
16140;DHT22;8175;49.326;12.690;2023-09-30T17:55:06;10.50;99.90
16140;DHT22;8175;49.326;12.690;2023-09-30T17:57:32;10.50;99.90
16140;DHT22;8175;49.326;12.690;2023-09-30T17:59:57;10.50;99.90
16140;DHT22;8175;49.326;12.690;2023-09-30T18:02:23;10.30;99.90
16140;DHT22;8175;49.326;12.690;2023-09-30T18:04:49;10.30;99.90
16140;DHT22;8175;49.326;12.690;2023-09-30T18:07:15;10.40;99.90
16140;DHT22;8175;49.326;12.690;2023-09-30T18:09:40;10.40;99.90
16140;DHT22;8175;49.326;12.690;2023-09-30T18:12:06;10.30;99.90
16140;DHT22;8175;49.326;12.690;2023-09-30T18:14:32;10.10;99.90
16140;DHT22;8175;49.326;12.690;2023-09-30T18:16:58;10.10;99.90
16140;DHT22;8175;49.326;12.690;2023-09-30T18:19:24;10.10;99.90
16140;DHT22;8175;49.326;12.690;2023-09-30T18:21:49;10.10;99.90
16140;DHT22;8175;49.326;12.690;2023-09-30T18:24:15;10.10;99.90
16140;DHT22;8175;49.326;12.690;2023-09-30T18:26:41;10.10;99.90
16140;DHT22;8175;49.326;12.690;2023-09-30T18:29:07;10.10;99.90
16140;DHT22;8175;49.326;12.690;2023-09-30T18:31:33;10.20;99.90
16140;DHT22;8175;49.326;12.690;2023-09-30T18:33:58;10.10;99.90
16140;DHT22;8175;49.326;12.690;2023-09-30T18:36:24;10.00;99.90
16140;DHT22;8175;49.326;12.690;2023-09-30T18:38:50;10.00;99.90
16140;DHT22;8175;49.326;12.690;2023-09-30T18:41:17;10.00;99.90
16140;DHT22;8175;49.326;12.690;2023-09-30T18:43:43;10.00;99.90
16140;DHT22;8175;49.326;12.690;2023-09-30T18:46:10;10.00;99.90
16140;DHT22;8175;49.326;12.690;2023-09-30T18:48:41;10.00;99.90
16140;DHT22;8175;49.326;12.690;2023-09-30T18:51:07;9.90;99.90
16140;DHT22;8175;49.326;12.690;2023-09-30T18:53:39;9.80;99.90
16140;DHT22;8175;49.326;12.690;2023-09-30T18:56:06;9.90;99.90
16140;DHT22;8175;49.326;12.690;2023-09-30T18:58:32;10.00;99.90
16140;DHT22;8175;49.326;12.690;2023-09-30T19:00:58;10.00;99.90
16140;DHT22;8175;49.326;12.690;2023-09-30T19:03:24;10.00;99.90
16140;DHT22;8175;49.326;12.690;2023-09-30T19:05:52;10.00;99.90
16140;DHT22;8175;49.326;12.690;2023-09-30T19:08:21;9.90;99.90
16140;DHT22;8175;49.326;12.690;2023-09-30T19:10:48;9.90;99.90
16140;DHT22;8175;49.326;12.690;2023-09-30T19:13:15;9.90;99.90
16140;DHT22;8175;49.326;12.690;2023-09-30T19:15:40;9.80;99.90
16140;DHT22;8175;49.326;12.690;2023-09-30T19:18:08;9.70;99.90
16140;DHT22;8175;49.326;12.690;2023-09-30T19:20:34;9.80;99.90
16140;DHT22;8175;49.326;12.690;2023-09-30T19:23:00;9.80;99.90
16140;DHT22;8175;49.326;12.690;2023-09-30T19:25:25;9.70;99.90
16140;DHT22;8175;49.326;12.690;2023-09-30T19:27:51;9.70;99.90
16140;DHT22;8175;49.326;12.690;2023-09-30T19:30:17;9.70;99.90
16140;DHT22;8175;49.326;12.690;2023-09-30T19:32:43;9.70;99.90
16140;DHT22;8175;49.326;12.690;2023-09-30T19:35:08;9.70;99.90
16140;DHT22;8175;49.326;12.690;2023-09-30T19:37:35;9.60;99.90
16140;DHT22;8175;49.326;12.690;2023-09-30T19:40:01;9.60;99.90
16140;DHT22;8175;49.326;12.690;2023-09-30T19:42:28;9.50;99.90
16140;DHT22;8175;49.326;12.690;2023-09-30T19:44:55;9.50;99.90
16140;DHT22;8175;49.326;12.690;2023-09-30T19:47:21;9.50;99.90
16140;DHT22;8175;49.326;12.690;2023-09-30T19:49:46;9.50;99.90
16140;DHT22;8175;49.326;12.690;2023-09-30T19:52:13;9.50;99.90
16140;DHT22;8175;49.326;12.690;2023-09-30T19:54:39;9.40;99.90
16140;DHT22;8175;49.326;12.690;2023-09-30T19:57:08;9.40;99.90
16140;DHT22;8175;49.326;12.690;2023-09-30T19:59:37;9.40;99.90
